Time;durP1;ratioP1;P1;durP2;ratioP2;P2;SDS_P1;SDS_P2;PMS_P1;PMS_P2;Temp;Humidity;BMP_temperature;BMP_pressure;BME280_temperature;BME280_humidity;BME280_pressure;Samples;Min_cycle;Max_cycle;Signal;HPM_P1;HPM_P2
2022/02/16 00:00:49;;;;;;;3.58;0.60;;;4.90;61.50;;;;;;5136693;27;20099;-76
2022/02/16 00:03:15;;;;;;;5.28;1.13;;;5.00;60.90;;;;;;5136770;27;20023;-77
2022/02/16 00:05:40;;;;;;;4.22;0.70;;;4.90;60.90;;;;;;5136658;27;20023;-76
2022/02/16 00:08:06;;;;;;;3.38;0.77;;;5.00;61.10;;;;;;5136607;27;20370;-76
2022/02/16 00:10:32;;;;;;;4.03;0.85;;;5.00;61.10;;;;;;5136496;27;20122;-77
2022/02/16 00:12:57;;;;;;;4.10;1.10;;;5.00;61.00;;;;;;5136416;27;20035;-77
2022/02/16 00:15:25;;;;;;;4.57;0.93;;;5.10;61.10;;;;;;5117868;27;20047;-78
2022/02/16 00:17:52;;;;;;;4.10;1.00;;;5.10;61.20;;;;;;5136483;27;20383;-78
2022/02/16 00:20:18;;;;;;;3.30;0.82;;;5.10;61.00;;;;;;5136413;27;20045;-78
2022/02/16 00:22:44;;;;;;;3.00;0.82;;;5.20;60.70;;;;;;5136454;27;20024;-78
2022/02/16 00:25:10;;;;;;;2.38;0.68;;;5.20;60.80;;;;;;5136379;27;20019;-78
2022/02/16 00:27:35;;;;;;;3.30;0.80;;;5.20;61.00;;;;;;5117715;27;20029;-78
2022/02/16 00:30:02;;;;;;;3.40;0.80;;;5.20;60.60;;;;;;5136176;27;20098;-78
2022/02/16 00:32:28;;;;;;;4.60;0.85;;;5.20;60.60;;;;;;5136064;27;20494;-78
2022/02/16 00:34:53;;;;;;;3.58;0.80;;;5.20;60.70;;;;;;5136132;27;20023;-78
2022/02/16 00:37:19;;;;;;;4.80;0.75;;;5.10;61.70;;;;;;5136046;27;20061;-78
2022/02/16 00:39:44;;;;;;;5.30;1.10;;;5.10;62.10;;;;;;5117540;27;20042;-78
2022/02/16 00:42:10;;;;;;;5.05;0.85;;;5.10;61.40;;;;;;5138223;27;20031;-76
2022/02/16 00:44:35;;;;;;;4.95;0.70;;;5.10;61.40;;;;;;5136043;27;20019;-76
2022/02/16 00:47:01;;;;;;;0.57;0.52;;;5.20;61.20;;;;;;5135944;27;20023;-77
2022/02/16 00:49:26;;;;;;;4.15;0.80;;;5.20;61.30;;;;;;5135759;27;20015;-76
2022/02/16 00:51:52;;;;;;;3.80;0.93;;;5.10;61.30;;;;;;5135628;27;20353;-77
2022/02/16 00:54:18;;;;;;;4.57;1.15;;;5.10;61.10;;;;;;5135827;27;20410;-77
2022/02/16 00:56:43;;;;;;;3.63;0.90;;;5.10;61.40;;;;;;5117226;27;20037;-77
2022/02/16 00:59:09;;;;;;;4.20;1.20;;;5.10;61.70;;;;;;5135323;27;20027;-77
2022/02/16 01:01:35;;;;;;;2.92;0.77;;;5.10;62.20;;;;;;5135530;27;20023;-77
2022/02/16 01:04:01;;;;;;;1.25;0.75;;;5.10;62.10;;;;;;5135625;27;20031;-77
2022/02/16 01:06:27;;;;;;;3.55;1.20;;;5.10;62.00;;;;;;5135377;27;20021;-77
2022/02/16 01:08:52;;;;;;;3.63;0.90;;;5.10;62.30;;;;;;5135516;27;20076;-77
2022/02/16 01:11:21;;;;;;;2.35;0.65;;;5.00;62.70;;;;;;5135319;27;20027;-76
2022/02/16 01:13:47;;;;;;;1.27;0.50;;;5.00;62.90;;;;;;5116929;27;20479;-77
2022/02/16 01:16:12;;;;;;;2.65;0.68;;;5.00;62.90;;;;;;5116683;27;20087;-76
2022/02/16 01:18:38;;;;;;;2.28;0.63;;;5.00;63.20;;;;;;5116824;27;20121;-77
2022/02/16 01:21:03;;;;;;;1.75;0.40;;;5.00;63.50;;;;;;5135157;27;20463;-77
2022/02/16 01:23:29;;;;;;;2.65;0.73;;;5.10;64.00;;;;;;5135215;27;20023;-77
2022/02/16 01:25:54;;;;;;;2.08;0.68;;;5.10;64.00;;;;;;5135077;27;20023;-77
2022/02/16 01:28:21;;;;;;;3.55;0.50;;;5.10;64.30;;;;;;5135042;27;20019;-78
2022/02/16 01:30:47;;;;;;;3.75;0.77;;;5.10;64.40;;;;;;5134932;27;20015;-77
2022/02/16 01:33:12;;;;;;;4.90;0.70;;;5.10;64.70;;;;;;5135270;27;20130;-77
2022/02/16 01:35:38;;;;;;;8.65;1.00;;;5.20;64.50;;;;;;5134967;27;20055;-77
2022/02/16 01:38:03;;;;;;;5.50;0.60;;;5.10;64.30;;;;;;5134975;27;20042;-77
2022/02/16 01:40:29;;;;;;;2.55;0.60;;;5.10;64.50;;;;;;5134799;27;20023;-77
2022/02/16 01:42:55;;;;;;;6.60;0.82;;;5.20;64.70;;;;;;5134762;27;20023;-77
2022/02/16 01:45:25;;;;;;;4.25;0.73;;;5.10;64.90;;;;;;5134726;27;20424;-77
2022/02/16 01:47:51;;;;;;;4.10;0.55;;;5.10;64.70;;;;;;5134637;27;20366;-77
2022/02/16 01:50:16;;;;;;;2.13;0.55;;;5.10;64.60;;;;;;5116568;27;20023;-77
2022/02/16 01:52:42;;;;;;;2.80;0.57;;;5.00;65.20;;;;;;5134589;27;20039;-77
2022/02/16 01:55:10;;;;;;;3.55;0.60;;;5.10;65.20;;;;;;5134596;27;20059;-77
2022/02/16 01:57:37;;;;;;;3.47;0.65;;;5.10;65.00;;;;;;5134418;27;20023;-78
2022/02/16 02:00:04;;;;;;;4.22;0.60;;;5.10;65.00;;;;;;5134545;27;20463;-78
2022/02/16 02:02:30;;;;;;;2.92;0.70;;;5.10;65.40;;;;;;5134406;27;20019;-77
2022/02/16 02:04:56;;;;;;;3.03;0.73;;;5.00;65.90;;;;;;5134346;27;20023;-77
2022/02/16 02:07:22;;;;;;;4.18;0.57;;;5.10;66.40;;;;;;5134289;27;20042;-77
2022/02/16 02:09:48;;;;;;;1.15;0.60;;;5.10;66.50;;;;;;5133607;27;20467;-77
2022/02/16 02:12:14;;;;;;;4.13;0.70;;;5.20;66.70;;;;;;5134280;27;20031;-78
2022/02/16 02:14:40;;;;;;;3.05;0.47;;;5.20;66.60;;;;;;5134055;27;20088;-77
2022/02/16 02:17:06;;;;;;;1.08;0.50;;;5.20;66.40;;;;;;5134294;27;20126;-77
2022/02/16 02:19:32;;;;;;;2.03;0.75;;;5.20;66.70;;;;;;5134441;27;20487;-77
2022/02/16 02:21:58;;;;;;;1.38;0.32;;;5.20;66.80;;;;;;5144892;27;20019;-77
2022/02/16 02:24:24;;;;;;;0.73;0.40;;;5.10;66.90;;;;;;5144664;27;20011;-77
2022/02/16 02:26:50;;;;;;;1.30;0.50;;;5.20;67.30;;;;;;5134168;27;20363;-76
2022/02/16 02:29:15;;;;;;;1.90;0.50;;;5.20;67.50;;;;;;5134093;27;20020;-77
2022/02/16 02:31:41;;;;;;;2.78;0.70;;;5.20;67.30;;;;;;5115550;28;20023;-78
2022/02/16 02:34:06;;;;;;;5.07;0.70;;;5.20;67.40;;;;;;5134035;28;20034;-78
2022/02/16 02:36:32;;;;;;;2.30;0.32;;;5.20;67.30;;;;;;5133840;28;20015;-78
2022/02/16 02:38:58;;;;;;;3.17;0.70;;;5.30;67.50;;;;;;5133983;28;20046;-77
2022/02/16 02:41:24;;;;;;;1.77;0.50;;;5.30;67.40;;;;;;5134116;28;20096;-78
2022/02/16 02:43:50;;;;;;;1.15;0.50;;;5.30;67.10;;;;;;5133943;28;20015;-78
2022/02/16 02:46:17;;;;;;;1.65;0.30;;;5.30;66.80;;;;;;5133961;28;20084;-78
2022/02/16 02:48:43;;;;;;;1.85;0.30;;;5.30;66.90;;;;;;5133912;28;20016;-78
2022/02/16 02:51:10;;;;;;;1.55;0.60;;;5.30;66.80;;;;;;5133967;28;20467;-78
2022/02/16 02:53:35;;;;;;;2.63;0.40;;;5.30;66.90;;;;;;5133918;28;20027;-77
2022/02/16 02:56:02;;;;;;;2.38;0.90;;;5.30;67.00;;;;;;5133965;28;20479;-76
2022/02/16 02:58:28;;;;;;;1.70;0.60;;;5.30;66.90;;;;;;5133687;28;20110;-76
2022/02/16 03:00:53;;;;;;;2.53;0.50;;;5.30;67.00;;;;;;5115391;28;20494;-76
2022/02/16 03:03:19;;;;;;;2.15;0.50;;;5.40;67.00;;;;;;5133730;28;20031;-76
2022/02/16 03:05:44;;;;;;;4.60;1.13;;;5.30;66.80;;;;;;5133611;28;20027;-76
2022/02/16 03:08:10;;;;;;;0.95;0.40;;;5.30;67.00;;;;;;5133688;28;20028;-76
2022/02/16 03:10:36;;;;;;;1.48;0.35;;;5.30;67.40;;;;;;5133718;28;20019;-76
2022/02/16 03:13:01;;;;;;;2.60;0.40;;;5.30;67.60;;;;;;5133658;28;20035;-76
2022/02/16 03:15:27;;;;;;;1.15;0.30;;;5.30;67.90;;;;;;5133570;28;20046;-76
2022/02/16 03:17:52;;;;;;;0.90;0.30;;;5.30;67.90;;;;;;5133618;28;20102;-76
2022/02/16 03:20:18;;;;;;;2.83;0.30;;;5.20;68.10;;;;;;5133572;28;20374;-76
2022/02/16 03:22:44;;;;;;;3.20;0.55;;;5.30;68.30;;;;;;5137086;27;20027;-77
2022/02/16 03:25:11;;;;;;;0.35;0.20;;;5.30;68.60;;;;;;5137588;27;20023;-77
2022/02/16 03:27:37;;;;;;;2.47;0.95;;;5.30;68.60;;;;;;5137326;27;20026;-76
2022/02/16 03:30:08;;;;;;;1.95;0.50;;;5.30;69.00;;;;;;5137363;27;20490;-76
2022/02/16 03:32:35;;;;;;;2.75;0.40;;;5.30;69.10;;;;;;5137183;27;20455;-77
2022/02/16 03:35:03;;;;;;;0.95;0.43;;;5.30;69.30;;;;;;5137284;27;20027;-77
2022/02/16 03:37:29;;;;;;;2.20;0.28;;;5.30;69.60;;;;;;5137207;27;20051;-76
2022/02/16 03:39:54;;;;;;;1.48;0.55;;;5.30;69.50;;;;;;5137357;27;20059;-75
2022/02/16 03:42:20;;;;;;;0.30;0.30;;;5.30;69.70;;;;;;5137171;27;20058;-76
2022/02/16 03:44:46;;;;;;;2.08;0.28;;;5.40;70.00;;;;;;5137383;27;20058;-78
2022/02/16 03:47:12;;;;;;;0.30;0.10;;;5.30;70.00;;;;;;5137133;27;20386;-76
2022/02/16 03:49:37;;;;;;;3.20;0.30;;;5.40;70.50;;;;;;5136913;27;20023;-76
2022/02/16 03:52:03;;;;;;;0.75;0.40;;;5.40;70.20;;;;;;5137045;27;20031;-79
2022/02/16 03:54:29;;;;;;;0.98;0.28;;;5.40;70.20;;;;;;5136702;27;20401;-76
2022/02/16 03:56:54;;;;;;;0.93;0.30;;;5.40;70.40;;;;;;5136766;27;20039;-77
2022/02/16 03:59:20;;;;;;;1.50;0.30;;;5.40;70.70;;;;;;5136748;27;20022;-77
2022/02/16 04:01:45;;;;;;;2.85;0.40;;;5.40;70.90;;;;;;5136924;27;20375;-77
2022/02/16 04:04:11;;;;;;;1.13;0.30;;;5.40;70.80;;;;;;5136712;27;20027;-77
2022/02/16 04:06:37;;;;;;;1.00;0.20;;;5.40;70.90;;;;;;5136696;27;20090;-77
2022/02/16 04:09:03;;;;;;;1.38;0.30;;;5.50;71.00;;;;;;5136706;27;20357;-78
2022/02/16 04:11:28;;;;;;;1.00;0.20;;;5.40;71.40;;;;;;5136412;27;20034;-77
2022/02/16 04:13:55;;;;;;;0.40;0.20;;;5.40;71.70;;;;;;5136582;27;20015;-77
2022/02/16 04:16:22;;;;;;;1.60;0.13;;;5.40;71.80;;;;;;5117978;27;20388;-78
2022/02/16 04:18:48;;;;;;;0.28;0.10;;;5.50;71.80;;;;;;5136438;27;20019;-77
2022/02/16 04:21:13;;;;;;;1.20;0.20;;;5.50;71.90;;;;;;5136562;27;20524;-78
2022/02/16 04:23:42;;;;;;;0.50;0.15;;;5.50;72.10;;;;;;5136385;27;20051;-77
2022/02/16 04:26:08;;;;;;;0.52;0.20;;;5.50;72.10;;;;;;5136367;27;20105;-78
2022/02/16 04:28:33;;;;;;;1.48;0.30;;;5.50;72.20;;;;;;5136218;27;20061;-77
2022/02/16 04:30:59;;;;;;;0.45;0.22;;;5.50;72.20;;;;;;5136160;27;20462;-77
2022/02/16 04:33:24;;;;;;;0.70;0.10;;;5.50;72.30;;;;;;5135439;27;20054;-77
2022/02/16 04:35:50;;;;;;;1.75;0.20;;;5.50;72.50;;;;;;5136095;27;20019;-78
2022/02/16 04:38:16;;;;;;;0.35;0.22;;;5.50;72.50;;;;;;5136127;27;20055;-77
2022/02/16 04:40:42;;;;;;;2.33;0.35;;;5.50;72.30;;;;;;5117534;27;20063;-77
2022/02/16 04:43:08;;;;;;;2.33;0.52;;;5.50;72.40;;;;;;5136078;27;20030;-77
2022/02/16 04:45:35;;;;;;;2.60;0.57;;;5.60;72.40;;;;;;5136061;27;20065;-78
2022/02/16 04:48:01;;;;;;;0.30;0.22;;;5.60;72.40;;;;;;5140782;27;20079;-76
2022/02/16 04:50:27;;;;;;;1.30;0.20;;;5.50;72.30;;;;;;5153069;27;20011;-77
2022/02/16 04:52:54;;;;;;;0.30;0.13;;;5.60;72.50;;;;;;5136290;27;20037;-76
2022/02/16 04:55:25;;;;;;;0.82;0.10;;;5.50;73.60;;;;;;5135939;27;20018;-78
2022/02/16 04:57:52;;;;;;;0.30;0.30;;;5.50;73.00;;;;;;5135564;27;20038;-77
2022/02/16 05:00:18;;;;;;;0.45;0.17;;;5.50;72.80;;;;;;5135602;27;20479;-77
2022/02/16 05:02:43;;;;;;;0.73;0.30;;;5.60;72.80;;;;;;5135567;27;20039;-77
2022/02/16 05:05:09;;;;;;;1.33;0.15;;;5.60;72.50;;;;;;5135728;27;20030;-78
2022/02/16 05:07:35;;;;;;;0.68;0.10;;;5.60;72.80;;;;;;5135575;27;20443;-76
2022/02/16 05:10:01;;;;;;;2.67;0.43;;;5.60;72.80;;;;;;5116955;27;20068;-78
2022/02/16 05:12:27;;;;;;;0.57;0.15;;;5.60;72.50;;;;;;5135225;27;20506;-77
2022/02/16 05:14:52;;;;;;;0.93;0.20;;;5.50;72.80;;;;;;5135207;27;20039;-77
2022/02/16 05:17:18;;;;;;;0.38;0.10;;;5.60;72.90;;;;;;5135195;27;20525;-78
2022/02/16 05:19:43;;;;;;;0.10;0.10;;;5.60;72.90;;;;;;5135169;27;20041;-77
2022/02/16 05:22:09;;;;;;;0.68;0.17;;;5.50;73.10;;;;;;5135263;27;20467;-79
2022/02/16 05:24:35;;;;;;;0.20;0.20;;;5.60;73.30;;;;;;5135042;27;20016;-77
2022/02/16 05:27:01;;;;;;;0.30;0.30;;;5.60;73.40;;;;;;5135050;27;20118;-77
2022/02/16 05:29:26;;;;;;;0.20;0.17;;;5.50;73.50;;;;;;5135019;27;20064;-76
2022/02/16 05:31:52;;;;;;;0.43;0.20;;;5.50;73.50;;;;;;5134952;27;20038;-77
2022/02/16 05:34:18;;;;;;;0.60;0.32;;;5.50;73.60;;;;;;5134985;27;20091;-76
2022/02/16 05:36:44;;;;;;;0.20;0.20;;;5.60;73.70;;;;;;5134900;27;20471;-77
2022/02/16 05:39:11;;;;;;;0.82;0.20;;;5.50;73.70;;;;;;5134961;27;20023;-77
2022/02/16 05:41:36;;;;;;;0.95;0.25;;;5.50;74.00;;;;;;5134814;27;20011;-77
2022/02/16 05:44:02;;;;;;;1.27;0.52;;;5.50;74.00;;;;;;5134450;27;20080;-77
2022/02/16 05:46:27;;;;;;;0.50;0.20;;;5.50;74.10;;;;;;5137621;27;20023;-76
2022/02/16 05:48:53;;;;;;;1.77;0.40;;;5.50;74.30;;;;;;5140781;27;20023;-77
2022/02/16 05:51:19;;;;;;;0.20;0.20;;;5.50;74.60;;;;;;5134724;27;20015;-78
2022/02/16 05:53:45;;;;;;;0.73;0.30;;;5.50;74.50;;;;;;5134513;27;20038;-76
2022/02/16 05:56:11;;;;;;;0.22;0.20;;;5.50;75.60;;;;;;5134532;27;20489;-76
2022/02/16 05:58:37;;;;;;;0.50;0.30;;;5.50;74.70;;;;;;5134283;27;20027;-77
2022/02/16 06:01:03;;;;;;;1.80;0.40;;;5.50;74.80;;;;;;5134390;27;20107;-78
2022/02/16 06:03:29;;;;;;;0.20;0.20;;;5.60;74.50;;;;;;5134353;27;20088;-78
2022/02/16 06:05:54;;;;;;;0.90;0.45;;;5.60;74.50;;;;;;5134241;27;20015;-77
2022/02/16 06:08:20;;;;;;;0.40;0.15;;;5.60;74.40;;;;;;5134338;27;20075;-77
2022/02/16 06:10:46;;;;;;;2.97;1.15;;;5.60;74.40;;;;;;5115582;27;20459;-78
2022/02/16 06:13:13;;;;;;;2.05;0.60;;;5.50;73.70;;;;;;5133865;27;20383;-77
2022/02/16 06:15:39;;;;;;;0.60;0.30;;;5.50;74.60;;;;;;5133818;27;20035;-76
2022/02/16 06:18:05;;;;;;;0.55;0.30;;;5.50;74.90;;;;;;5133899;27;20023;-77
2022/02/16 06:20:30;;;;;;;0.65;0.38;;;5.50;74.60;;;;;;5133882;27;20050;-76
2022/02/16 06:22:56;;;;;;;0.10;0.10;;;5.50;74.80;;;;;;5133977;27;20034;-76
2022/02/16 06:25:23;;;;;;;0.80;0.30;;;5.50;75.00;;;;;;5133558;27;20024;-76
2022/02/16 06:27:50;;;;;;;0.70;0.30;;;5.50;75.20;;;;;;5133138;27;20375;-77
2022/02/16 06:30:15;;;;;;;0.52;0.17;;;5.50;75.50;;;;;;5133164;27;20108;-76
2022/02/16 06:32:43;;;;;;;1.70;0.20;;;5.50;75.40;;;;;;5133468;27;20066;-77
2022/02/16 06:35:09;;;;;;;0.93;0.20;;;5.50;75.50;;;;;;5133471;27;20011;-78
2022/02/16 06:37:35;;;;;;;0.95;0.28;;;5.50;75.50;;;;;;5133490;28;20042;-77
2022/02/16 06:40:00;;;;;;;1.33;0.30;;;5.50;75.40;;;;;;5134009;28;20016;-78
2022/02/16 06:42:26;;;;;;;1.65;0.32;;;5.60;75.10;;;;;;5133869;28;20023;-77
2022/02/16 06:44:51;;;;;;;0.20;0.20;;;5.60;75.10;;;;;;5133800;28;20106;-77
2022/02/16 06:47:17;;;;;;;0.15;0.15;;;5.50;74.90;;;;;;5115290;28;20463;-78
2022/02/16 06:49:42;;;;;;;0.20;0.20;;;5.60;74.90;;;;;;5133753;28;20102;-76
2022/02/16 06:52:08;;;;;;;2.42;0.40;;;5.60;74.90;;;;;;5133795;28;20509;-77
2022/02/16 06:54:34;;;;;;;0.63;0.52;;;5.60;74.90;;;;;;5133823;28;20027;-76
2022/02/16 06:56:59;;;;;;;4.38;0.28;;;5.60;75.00;;;;;;5135976;27;20385;-77
2022/02/16 06:59:25;;;;;;;0.70;0.28;;;5.50;75.00;;;;;;5137809;27;20150;-77
2022/02/16 07:01:51;;;;;;;0.88;0.47;;;5.60;74.90;;;;;;5137984;27;20055;-77
2022/02/16 07:04:17;;;;;;;0.45;0.30;;;5.60;75.00;;;;;;5137766;27;20034;-78
2022/02/16 07:06:42;;;;;;;0.38;0.30;;;5.60;74.80;;;;;;5138307;27;20023;-78
2022/02/16 07:09:08;;;;;;;0.30;0.22;;;5.70;75.00;;;;;;5153960;27;20027;-77
2022/02/16 07:11:33;;;;;;;3.13;0.75;;;5.60;75.00;;;;;;5142055;27;20031;-77
2022/02/16 07:13:59;;;;;;;2.35;0.38;;;5.60;75.10;;;;;;5119115;27;20032;-77
2022/02/16 07:16:25;;;;;;;0.35;0.20;;;5.70;75.30;;;;;;5137402;27;20050;-78
2022/02/16 07:18:50;;;;;;;0.80;0.20;;;5.60;75.10;;;;;;5137629;27;20026;-78
2022/02/16 07:21:16;;;;;;;0.15;0.15;;;5.70;75.50;;;;;;5137390;27;20050;-78
2022/02/16 07:23:46;;;;;;;0.20;0.20;;;5.70;75.60;;;;;;5137277;27;20070;-77
2022/02/16 07:26:12;;;;;;;1.08;0.17;;;5.70;75.60;;;;;;5137207;27;20084;-77
2022/02/16 07:28:37;;;;;;;0.30;0.20;;;5.70;75.90;;;;;;5136941;27;20459;-78
2022/02/16 07:31:03;;;;;;;0.32;0.28;;;5.70;75.70;;;;;;5137101;27;20027;-78
2022/02/16 07:33:29;;;;;;;0.60;0.40;;;5.80;76.20;;;;;;5137185;27;20085;-77
2022/02/16 07:35:54;;;;;;;0.45;0.20;;;5.70;76.10;;;;;;5137153;27;20045;-78
2022/02/16 07:38:20;;;;;;;0.10;0.10;;;5.80;76.20;;;;;;5136986;27;20054;-77
2022/02/16 07:40:46;;;;;;;0.20;0.20;;;5.80;76.40;;;;;;5137040;27;20075;-78
2022/02/16 07:43:11;;;;;;;0.05;0.05;;;5.80;76.30;;;;;;5137059;27;20144;-77
2022/02/16 07:45:37;;;;;;;0.40;0.20;;;5.80;76.30;;;;;;5136961;27;20030;-77
2022/02/16 07:48:02;;;;;;;0.38;0.22;;;5.80;76.60;;;;;;5136895;27;20050;-79
2022/02/16 07:50:28;;;;;;;0.30;0.10;;;5.90;76.60;;;;;;5136830;27;20118;-76
2022/02/16 07:52:55;;;;;;;0.22;0.13;;;5.90;76.30;;;;;;5136581;27;20039;-75
2022/02/16 07:55:21;;;;;;;0.13;0.10;;;5.90;76.60;;;;;;5136674;27;20015;-77
2022/02/16 07:57:47;;;;;;;0.17;0.17;;;5.90;76.60;;;;;;5136680;27;20106;-77
2022/02/16 08:00:13;;;;;;;0.20;0.10;;;5.90;76.50;;;;;;5136558;27;20111;-77
2022/02/16 08:02:38;;;;;;;0.17;0.10;;;5.90;76.80;;;;;;5136429;27;20027;-77
2022/02/16 08:05:04;;;;;;;0.40;0.10;;;5.90;77.40;;;;;;5136262;27;20480;-77
2022/02/16 08:07:29;;;;;;;4.25;0.60;;;5.90;77.70;;;;;;5116742;28;20027;-77
2022/02/16 08:09:55;;;;;;;0.60;0.43;;;5.80;77.70;;;;;;5136045;27;20059;-76
2022/02/16 08:12:21;;;;;;;0.65;0.40;;;5.90;78.10;;;;;;5136272;27;20031;-76
2022/02/16 08:14:47;;;;;;;0.43;0.22;;;5.90;78.70;;;;;;5136055;27;20031;-76
2022/02/16 08:17:12;;;;;;;0.22;0.20;;;5.80;78.30;;;;;;5136384;27;20110;-81
2022/02/16 08:19:38;;;;;;;0.17;0.17;;;6.00;78.60;;;;;;5136515;27;20022;-81
2022/02/16 08:22:04;;;;;;;0.20;0.20;;;6.10;78.10;;;;;;5136242;27;20012;-81
2022/02/16 08:24:30;;;;;;;0.20;0.10;;;6.10;77.20;;;;;;5135986;27;20031;-82
2022/02/16 08:26:57;;;;;;;1.27;0.25;;;6.20;77.20;;;;;;5136321;27;20022;-84
2022/02/16 08:29:24;;;;;;;1.00;0.20;;;6.20;76.90;;;;;;5136298;27;20038;-78
2022/02/16 08:31:50;;;;;;;0.20;0.20;;;6.20;77.20;;;;;;5135766;27;20031;-78
2022/02/16 08:34:16;;;;;;;0.10;0.10;;;6.20;77.20;;;;;;5135955;27;20026;-78
2022/02/16 08:36:42;;;;;;;0.22;0.20;;;6.10;77.90;;;;;;5135645;27;20024;-78
2022/02/16 08:39:08;;;;;;;0.10;0.10;;;6.00;78.20;;;;;;5135756;27;20024;-77
2022/02/16 08:41:33;;;;;;;0.30;0.15;;;6.00;78.90;;;;;;5135553;27;20023;-78
2022/02/16 08:43:59;;;;;;;0.20;0.10;;;6.00;78.70;;;;;;5135585;27;20023;-79
2022/02/16 08:46:25;;;;;;;0.10;0.10;;;5.90;78.80;;;;;;5135496;27;20019;-79
2022/02/16 08:48:50;;;;;;;0.03;0.00;;;5.90;79.20;;;;;;5135576;27;20533;-80
2022/02/16 08:51:16;;;;;;;1.17;0.10;;;5.90;79.30;;;;;;5135082;27;20383;-80
2022/02/16 08:53:41;;;;;;;3.42;0.80;;;5.90;79.60;;;;;;5135076;27;20027;-78
2022/02/16 08:56:07;;;;;;;0.22;0.03;;;5.90;80.30;;;;;;5135541;27;20019;-80
2022/02/16 08:58:33;;;;;;;0.10;0.10;;;5.90;79.80;;;;;;5135437;27;20034;-79
2022/02/16 09:00:59;;;;;;;0.17;0.17;;;5.90;79.30;;;;;;5135357;27;20030;-78
2022/02/16 09:03:28;;;;;;;0.15;0.15;;;5.90;79.60;;;;;;5135229;27;20023;-80
2022/02/16 09:05:53;;;;;;;1.48;0.00;;;6.00;80.00;;;;;;5135204;27;20032;-78
2022/02/16 09:08:19;;;;;;;0.50;0.10;;;6.00;79.40;;;;;;5135120;27;20023;-79
2022/02/16 09:10:45;;;;;;;2.00;0.20;;;6.00;79.80;;;;;;5116746;27;20027;-80
2022/02/16 09:13:11;;;;;;;1.38;0.10;;;6.00;80.40;;;;;;5134896;27;20035;-79
2022/02/16 09:15:36;;;;;;;0.15;0.10;;;6.00;79.70;;;;;;5134948;27;20054;-80
2022/02/16 09:18:05;;;;;;;0.17;0.17;;;6.10;79.80;;;;;;5136078;27;20027;-79
2022/02/16 09:20:30;;;;;;;0.90;0.20;;;6.10;79.70;;;;;;5153827;27;20015;-80
2022/02/16 09:22:57;;;;;;;0.25;0.20;;;6.10;79.20;;;;;;5120994;27;20083;-80
2022/02/16 09:25:23;;;;;;;0.22;0.15;;;6.10;79.10;;;;;;5135184;27;20046;-80
2022/02/16 09:27:48;;;;;;;0.90;0.30;;;6.20;79.20;;;;;;5116455;27;20129;-80
2022/02/16 09:30:14;;;;;;;0.20;0.20;;;6.20;78.70;;;;;;5134660;27;20023;-78
2022/02/16 09:32:40;;;;;;;0.08;0.08;;;6.20;79.30;;;;;;5134855;27;20531;-79
2022/02/16 09:35:07;;;;;;;0.10;0.10;;;6.30;79.30;;;;;;5134874;27;20023;-79
2022/02/16 09:37:32;;;;;;;0.45;0.17;;;6.30;79.10;;;;;;5134367;27;20029;-78
2022/02/16 09:39:58;;;;;;;0.10;0.10;;;6.40;79.10;;;;;;5134720;27;20019;-80
2022/02/16 09:42:24;;;;;;;0.20;0.10;;;6.50;79.70;;;;;;5134706;27;20059;-80
2022/02/16 09:45:00;;;;;;;0.13;0.10;;;6.50;78.60;;;;;;5134569;27;20026;-80
2022/02/16 09:47:26;;;;;;;0.10;0.10;;;6.50;79.00;;;;;;5134854;27;20076;-79
2022/02/16 09:49:51;;;;;;;0.25;0.17;;;6.50;79.10;;;;;;5134716;27;20023;-79
2022/02/16 09:52:19;;;;;;;0.10;0.10;;;6.50;79.30;;;;;;5129403;27;20076;-84
2022/02/16 09:54:45;;;;;;;1.00;0.10;;;6.60;79.40;;;;;;5134432;27;20030;-80
2022/02/16 09:57:11;;;;;;;1.77;0.10;;;6.60;78.70;;;;;;5134330;27;20027;-78
2022/02/16 09:59:36;;;;;;;1.00;0.20;;;6.60;78.80;;;;;;5133807;27;20019;-79
2022/02/16 10:02:08;;;;;;;0.57;0.10;;;6.60;78.60;;;;;;5134339;27;20027;-80
2022/02/16 10:04:36;;;;;;;0.00;0.00;;;6.50;78.90;;;;;;5134121;27;20383;-80
2022/02/16 10:07:04;;;;;;;0.10;0.10;;;6.60;79.00;;;;;;5133916;27;20038;-80
2022/02/16 10:09:31;;;;;;;0.00;0.00;;;6.60;78.90;;;;;;5133834;27;20497;-79
2022/02/16 10:12:02;;;;;;;0.10;0.10;;;6.70;78.90;;;;;;5133982;27;20084;-77
2022/02/16 10:14:33;;;;;;;0.10;0.10;;;6.80;78.70;;;;;;5134358;27;20035;-86
2022/02/16 10:17:02;;;;;;;0.20;0.10;;;6.80;78.70;;;;;;5116264;27;20035;-82
2022/02/16 10:19:55;;;;;;;0.17;0.10;;;6.90;78.70;;;;;;5134355;27;20364;-80
2022/02/16 10:22:23;;;;;;;0.17;0.17;;;6.90;78.10;;;;;;5133895;27;20019;-78
2022/02/16 10:24:49;;;;;;;0.00;0.00;;;6.90;77.80;;;;;;5133844;27;20023;-80
2022/02/16 10:27:16;;;;;;;0.10;0.10;;;6.90;77.40;;;;;;5133765;27;20071;-77
2022/02/16 10:29:43;;;;;;;0.10;0.10;;;6.90;77.90;;;;;;5133892;27;20023;-82
2022/02/16 10:32:10;;;;;;;0.20;0.13;;;6.90;77.60;;;;;;5133643;27;20114;-79
2022/02/16 10:34:49;;;;;;;0.13;0.10;;;7.00;77.10;;;;;;5133935;27;20019;-79
2022/02/16 10:37:17;;;;;;;0.63;0.13;;;7.00;77.20;;;;;;5134498;27;20020;-80
2022/02/16 10:39:58;;;;;;;0.00;0.00;;;7.10;76.80;;;;;;5133726;28;20019;-78
2022/02/16 10:42:24;;;;;;;0.10;0.10;;;7.20;76.80;;;;;;5134586;28;20055;-81
2022/02/16 10:45:13;;;;;;;3.10;0.20;;;7.20;76.50;;;;;;5133787;28;20077;-78
2022/02/16 10:47:59;;;;;;;0.77;0.20;;;7.30;76.10;;;;;;5133043;28;20110;-77
2022/02/16 10:50:27;;;;;;;0.17;0.17;;;7.30;76.40;;;;;;5133096;28;20079;-79
2022/02/16 10:53:08;;;;;;;1.42;0.28;;;7.40;75.80;;;;;;5133290;28;20505;-78
2022/02/16 10:55:42;;;;;;;0.10;0.10;;;7.60;76.10;;;;;;5133500;28;20015;-81
2022/02/16 10:58:09;;;;;;;0.20;0.20;;;7.70;75.60;;;;;;5133615;28;20112;-79
2022/02/16 11:00:38;;;;;;;0.50;0.20;;;7.80;75.00;;;;;;5132983;28;20015;-88
2022/02/16 11:03:05;;;;;;;0.45;0.30;;;7.90;75.20;;;;;;5133375;28;20073;-80
2022/02/16 11:05:32;;;;;;;0.17;0.13;;;8.00;75.00;;;;;;5133246;28;20378;-80
2022/02/16 11:08:03;;;;;;;0.43;0.10;;;8.00;75.20;;;;;;5133088;28;20023;-76
2022/02/16 11:10:31;;;;;;;0.20;0.20;;;8.00;74.90;;;;;;5132914;28;20126;-80
2022/02/16 11:12:57;;;;;;;0.20;0.20;;;8.40;74.20;;;;;;5133385;28;20475;-80
2022/02/16 11:15:23;;;;;;;0.60;0.40;;;8.60;73.40;;;;;;5132969;28;20383;-76
2022/02/16 11:17:49;;;;;;;0.47;0.40;;;9.00;73.00;;;;;;5133103;28;20080;-78
2022/02/16 11:20:25;;;;;;;0.40;0.30;;;9.60;70.80;;;;;;5132803;28;20379;-79
2022/02/16 11:22:55;;;;;;;0.30;0.17;;;9.80;69.90;;;;;;5132894;28;20117;-77
2022/02/16 11:25:28;;;;;;;0.35;0.17;;;9.50;70.00;;;;;;5132772;28;20015;-80
2022/02/16 11:27:54;;;;;;;0.20;0.20;;;8.80;72.30;;;;;;5132839;28;20058;-80
2022/02/16 11:30:34;;;;;;;0.40;0.17;;;8.70;73.60;;;;;;5132568;28;20475;-78
2022/02/16 11:33:23;;;;;;;0.60;0.20;;;8.80;73.80;;;;;;5132993;28;20537;-81
2022/02/16 11:36:00;;;;;;;0.80;0.10;;;8.50;73.80;;;;;;5133137;28;20037;-77
2022/02/16 11:38:46;;;;;;;0.75;0.30;;;8.50;74.70;;;;;;5132651;28;20019;-76
2022/02/16 11:41:27;;;;;;;0.30;0.30;;;8.40;75.30;;;;;;5132697;28;20108;-80
2022/02/16 11:43:57;;;;;;;0.45;0.40;;;8.40;75.40;;;;;;5136379;27;20073;-77
2022/02/16 11:46:41;;;;;;;0.65;0.28;;;8.40;74.70;;;;;;5136514;27;20011;-78
2022/02/16 11:49:27;;;;;;;0.20;0.20;;;8.40;74.30;;;;;;5136447;27;20430;-78
2022/02/16 11:51:56;;;;;;;0.63;0.40;;;8.50;73.90;;;;;;5136141;27;20130;-77
2022/02/16 11:54:44;;;;;;;0.63;0.10;;;8.70;73.50;;;;;;5137185;27;20019;-79
2022/02/16 11:57:45;;;;;;;0.10;0.10;;;8.80;73.20;;;;;;5136725;27;20472;-76
2022/02/16 12:00:18;;;;;;;1.27;0.20;;;8.60;73.80;;;;;;5136257;27;20134;-77
2022/02/16 12:02:56;;;;;;;0.30;0.20;;;8.50;75.20;;;;;;5136225;27;20019;-78
2022/02/16 12:05:45;;;;;;;0.57;0.35;;;8.40;75.90;;;;;;5136321;27;20031;-78
2022/02/16 12:08:17;;;;;;;0.38;0.20;;;8.30;77.20;;;;;;5136395;27;20043;-77
2022/02/16 12:10:58;;;;;;;0.15;0.15;;;8.20;77.80;;;;;;5142988;27;20003;-77
2022/02/16 12:13:33;;;;;;;0.20;0.20;;;8.10;78.90;;;;;;5147257;27;20031;-78
2022/02/16 12:16:01;;;;;;;0.10;0.10;;;8.20;79.20;;;;;;5135819;27;20039;-78
2022/02/16 12:18:28;;;;;;;0.30;0.30;;;8.20;79.20;;;;;;5135965;27;20023;-79
2022/02/16 12:20:54;;;;;;;1.20;0.38;;;8.30;79.70;;;;;;5136131;27;20019;-77
2022/02/16 12:23:20;;;;;;;0.30;0.30;;;8.50;79.20;;;;;;5136189;27;20023;-78
2022/02/16 12:25:59;;;;;;;1.05;0.30;;;8.60;78.80;;;;;;5136106;27;20026;-78
2022/02/16 12:28:25;;;;;;;0.75;0.20;;;8.60;79.30;;;;;;5136166;27;20025;-78
2022/02/16 12:30:51;;;;;;;0.60;0.38;;;8.70;79.00;;;;;;5136017;27;20327;-78
2022/02/16 12:33:22;;;;;;;0.73;0.35;;;8.70;79.20;;;;;;5136092;27;20055;-77
2022/02/16 12:35:48;;;;;;;0.20;0.20;;;8.70;79.60;;;;;;5136016;27;20023;-77
2022/02/16 12:38:22;;;;;;;0.10;0.10;;;8.80;79.20;;;;;;5117531;27;20127;-78
2022/02/16 12:40:47;;;;;;;0.98;0.50;;;8.80;78.90;;;;;;5135882;27;20056;-78
2022/02/16 12:43:13;;;;;;;0.10;0.10;;;8.90;80.00;;;;;;5135795;27;20027;-77
2022/02/16 12:45:38;;;;;;;0.20;0.10;;;8.80;78.80;;;;;;5135801;27;20023;-76
2022/02/16 12:48:04;;;;;;;0.10;0.10;;;8.90;79.10;;;;;;5135857;27;20467;-77
2022/02/16 12:50:30;;;;;;;0.25;0.20;;;8.90;79.50;;;;;;5135399;27;20098;-78
2022/02/16 12:53:00;;;;;;;1.00;0.20;;;9.00;79.20;;;;;;5135445;27;20114;-77
2022/02/16 12:55:26;;;;;;;0.68;0.20;;;9.30;78.30;;;;;;5116176;27;20076;-77
2022/02/16 12:57:53;;;;;;;0.10;0.10;;;9.50;77.40;;;;;;5135668;27;20023;-78